Terminal Aerodrome Forecast
Issued by NWS

Home | Current Version | Previous Version | Text Only | Print | Product List | Glossary On
Versions: 1 2 3 4 5 6 7 8 9 10 11 12 13
915
FTUS45 KTFX 282320
TAFLWT
TAF
KLWT 282320Z 2900/2924 28007KT P6SM SCT070
     FM290800 23008KT P6SM BKN070
     FM291600 25015G22KT P6SM BKN070=

USA.gov is the U.S. government's official web portal to all federal, state and local government web resources and services.